createdAt,value
2019-03-31T00:01:57.697Z,32.60
2019-03-31T00:04:30.918Z,32.60
2019-03-31T00:07:03.833Z,32.40
2019-03-31T00:09:37.184Z,31.90
2019-03-31T00:12:09.913Z,31.80
2019-03-31T00:14:43.270Z,31.70
2019-03-31T00:17:16.209Z,31.50
2019-03-31T00:19:49.562Z,31.50
2019-03-31T00:22:22.390Z,31.40
2019-03-31T00:24:55.706Z,31.40
2019-03-31T00:27:28.564Z,31.40
2019-03-31T00:30:02.014Z,31.60
2019-03-31T00:32:35.031Z,31.70
2019-03-31T00:35:08.486Z,31.70
2019-03-31T00:37:41.325Z,31.80
2019-03-31T00:40:14.625Z,31.70
2019-03-31T00:42:47.489Z,31.70
2019-03-31T00:45:20.938Z,31.70
2019-03-31T00:47:53.896Z,31.70
2019-03-31T00:50:28.101Z,31.70
2019-03-31T00:53:01.095Z,31.70
2019-03-31T00:55:34.110Z,31.80
2019-03-31T00:58:07.066Z,31.80
2019-03-31T01:00:51.037Z,31.80
2019-03-31T01:03:24.097Z,31.80
2019-03-31T01:05:57.558Z,31.90
2019-03-31T01:08:33.605Z,32.10
2019-03-31T01:11:08.908Z,32.20
2019-03-31T01:13:42.345Z,32.30
2019-03-31T01:16:15.651Z,32.30
2019-03-31T01:18:48.754Z,32.20
2019-03-31T01:21:21.562Z,32.00
2019-03-31T01:23:54.951Z,31.60
2019-03-31T01:26:28.003Z,31.20
2019-03-31T01:29:01.187Z,30.90
2019-03-31T01:31:34.310Z,30.60
2019-03-31T02:33:23.240Z,33.90
2019-03-31T02:35:56.701Z,34.00
2019-03-31T02:38:31.009Z,34.20
2019-03-31T02:41:04.018Z,34.30
2019-03-31T02:43:37.011Z,34.30
2019-03-31T02:46:09.889Z,34.30
2019-03-31T02:48:43.128Z,34.40
2019-03-31T02:51:16.319Z,34.60
2019-03-31T02:53:49.358Z,34.50
2019-03-31T02:56:22.408Z,34.50
2019-03-31T02:58:57.265Z,34.50
2019-03-31T03:01:30.238Z,34.50
2019-03-31T03:04:07.977Z,34.40
2019-03-31T03:06:41.235Z,34.20
2019-03-31T03:09:15.093Z,34.10
2019-03-31T03:11:49.565Z,33.90
2019-03-31T03:14:23.943Z,33.70
2019-03-31T03:16:57.234Z,33.50
2019-03-31T03:19:30.889Z,33.30
2019-03-31T03:22:04.885Z,33.20
2019-03-31T03:24:38.504Z,33.00
2019-03-31T03:27:13.167Z,32.60
2019-03-31T03:29:46.737Z,32.30
2019-03-31T03:32:23.139Z,31.80
2019-03-31T03:34:57.363Z,31.00
2019-03-31T03:37:31.123Z,29.90
2019-03-31T03:40:04.286Z,29.10
2019-03-31T03:42:38.387Z,28.40
2019-03-31T03:45:12.697Z,27.80
2019-03-31T03:47:45.769Z,27.40
2019-03-31T03:50:18.610Z,27.00
2019-03-31T03:52:51.767Z,26.60
2019-03-31T03:55:24.654Z,26.30
2019-03-31T03:57:57.847Z,26.00
2019-03-31T04:00:30.851Z,25.80
2019-03-31T04:03:03.959Z,25.60
2019-03-31T04:05:36.919Z,25.40
2019-03-31T04:08:10.502Z,25.40
2019-03-31T04:10:48.297Z,25.20
2019-03-31T04:13:21.360Z,25.10
2019-03-31T04:15:54.897Z,25.00
2019-03-31T04:18:28.016Z,25.00
2019-03-31T04:21:01.133Z,24.90
2019-03-31T04:23:34.089Z,24.90
2019-03-31T04:26:07.255Z,24.80
2019-03-31T04:28:40.071Z,24.70
2019-03-31T04:31:13.221Z,24.60
2019-03-31T04:33:51.763Z,24.50
2019-03-31T04:36:20.950Z,24.50
2019-03-31T04:38:53.839Z,24.50
2019-03-31T04:41:27.109Z,24.50
2019-03-31T04:44:00.028Z,24.50
2019-03-31T04:46:33.303Z,24.40
2019-03-31T04:49:06.078Z,24.30
2019-03-31T04:51:40.211Z,24.30
2019-03-31T04:54:13.199Z,24.20
2019-03-31T04:56:46.307Z,24.20
2019-03-31T04:59:19.435Z,24.10
2019-03-31T05:01:52.346Z,24.10
2019-03-31T05:04:25.811Z,24.10
2019-03-31T05:06:59.052Z,24.10
2019-03-31T05:09:32.104Z,24.00
2019-03-31T05:12:04.919Z,23.90
2019-03-31T05:14:37.895Z,23.90
2019-03-31T05:17:11.304Z,23.80
2019-03-31T05:19:44.404Z,23.80
2019-03-31T05:22:19.808Z,23.70
2019-03-31T05:24:52.700Z,23.70
2019-03-31T05:27:25.874Z,23.70
2019-03-31T05:29:58.681Z,23.60
2019-03-31T05:32:31.765Z,23.60
2019-03-31T05:35:04.800Z,23.50
2019-03-31T05:37:50.351Z,23.50
2019-03-31T05:40:13.512Z,23.40
2019-03-31T05:42:46.500Z,23.40
2019-03-31T05:45:19.678Z,23.30
2019-03-31T05:47:52.652Z,23.30
2019-03-31T05:50:25.835Z,23.20
2019-03-31T05:52:58.737Z,23.20
2019-03-31T05:55:31.814Z,23.10
2019-03-31T05:58:04.620Z,23.10
2019-03-31T06:00:39.449Z,23.00
2019-03-31T06:03:12.571Z,23.00
2019-03-31T06:05:45.694Z,23.00
2019-03-31T06:08:18.588Z,22.90
2019-03-31T06:10:51.529Z,22.90
2019-03-31T06:13:24.373Z,22.90
2019-03-31T06:15:57.499Z,22.90
2019-03-31T06:18:30.472Z,22.90
2019-03-31T06:21:03.781Z,22.80
2019-03-31T06:23:36.748Z,22.80
2019-03-31T06:26:09.840Z,22.80
2019-03-31T06:28:42.710Z,22.80
2019-03-31T06:31:15.984Z,22.70
2019-03-31T06:33:49.100Z,22.70
2019-03-31T06:36:22.175Z,22.70
2019-03-31T06:38:55.809Z,22.70
2019-03-31T06:41:28.660Z,22.70
2019-03-31T06:44:01.856Z,22.70
2019-03-31T06:46:34.815Z,22.70
2019-03-31T06:49:07.813Z,22.70
2019-03-31T06:51:40.811Z,22.70
2019-03-31T06:54:15.090Z,22.70
2019-03-31T06:56:48.103Z,22.60
2019-03-31T06:59:21.733Z,22.60
2019-03-31T07:01:54.762Z,22.60
2019-03-31T07:04:27.843Z,22.60
2019-03-31T07:07:00.835Z,22.50
2019-03-31T07:09:34.074Z,22.50
2019-03-31T07:12:06.979Z,22.50
2019-03-31T07:14:40.229Z,22.40
2019-03-31T07:17:13.122Z,22.40
2019-03-31T07:19:46.123Z,22.40
2019-03-31T07:22:19.298Z,22.40
2019-03-31T07:24:52.109Z,22.40
2019-03-31T07:27:25.402Z,22.40
2019-03-31T07:29:58.371Z,22.30
2019-03-31T07:32:31.461Z,22.30
2019-03-31T07:35:17.550Z,22.30
2019-03-31T07:37:47.194Z,22.30
2019-03-31T07:40:23.357Z,22.30
2019-03-31T07:42:57.614Z,22.30
2019-03-31T07:45:31.654Z,22.20
2019-03-31T07:48:07.894Z,22.20
2019-03-31T07:50:39.884Z,22.20
2019-03-31T07:53:12.866Z,22.20
2019-03-31T07:55:45.979Z,22.20
2019-03-31T07:58:18.988Z,22.20
2019-03-31T08:00:52.082Z,22.20
2019-03-31T08:03:25.182Z,22.20
2019-03-31T08:05:58.105Z,22.20
2019-03-31T08:08:31.616Z,22.20
2019-03-31T08:11:04.482Z,22.20
2019-03-31T08:13:37.914Z,22.10
2019-03-31T08:16:11.023Z,22.10
2019-03-31T08:18:44.750Z,22.10
2019-03-31T08:21:17.719Z,22.10
2019-03-31T08:23:50.562Z,22.10
2019-03-31T08:26:23.758Z,22.10
2019-03-31T08:28:58.715Z,22.10
2019-03-31T08:31:31.775Z,22.00
2019-03-31T08:34:05.532Z,22.00
2019-03-31T08:36:38.774Z,22.00
2019-03-31T08:39:12.954Z,22.00
2019-03-31T08:41:46.494Z,22.00
2019-03-31T08:44:19.809Z,22.00
2019-03-31T08:46:52.645Z,22.00
2019-03-31T08:49:26.157Z,22.00
2019-03-31T08:51:59.105Z,22.00
2019-03-31T08:54:32.379Z,22.10
2019-03-31T08:57:05.431Z,22.10
2019-03-31T08:59:38.503Z,22.10
2019-03-31T09:02:28.352Z,22.00
2019-03-31T09:05:01.199Z,22.00
2019-03-31T09:07:34.515Z,22.00
2019-03-31T09:10:11.342Z,22.00
2019-03-31T09:12:46.775Z,22.00
2019-03-31T09:15:18.818Z,22.00
2019-03-31T09:17:54.175Z,22.00
2019-03-31T09:20:26.433Z,21.90
2019-03-31T09:22:59.256Z,21.90
2019-03-31T09:25:32.578Z,22.00
2019-03-31T09:28:05.446Z,21.90
2019-03-31T09:30:38.814Z,21.90
2019-03-31T09:33:11.918Z,21.90
2019-03-31T09:35:44.977Z,21.90
2019-03-31T09:38:18.543Z,21.90
2019-03-31T09:40:51.654Z,21.90
2019-03-31T09:43:24.908Z,21.90
2019-03-31T09:45:57.792Z,21.90
2019-03-31T09:48:31.338Z,21.80
2019-03-31T09:51:04.364Z,21.80
2019-03-31T09:53:37.880Z,21.90
2019-03-31T09:56:10.877Z,21.90
2019-03-31T09:58:44.061Z,21.90
2019-03-31T10:01:17.171Z,21.90
2019-03-31T10:03:50.342Z,21.80
2019-03-31T10:06:30.104Z,21.90
2019-03-31T10:08:58.228Z,21.80
2019-03-31T10:11:31.525Z,21.80
2019-03-31T10:14:04.602Z,21.80
2019-03-31T10:16:37.786Z,21.80
2019-03-31T10:19:10.694Z,21.80
2019-03-31T10:21:43.855Z,21.80
2019-03-31T10:24:17.361Z,21.80
2019-03-31T10:26:50.533Z,21.90
2019-03-31T10:29:23.454Z,21.90
2019-03-31T10:31:56.743Z,21.90
2019-03-31T10:34:29.614Z,21.90
2019-03-31T10:37:02.688Z,21.90
2019-03-31T10:39:35.807Z,21.90
2019-03-31T10:42:09.566Z,21.90
2019-03-31T10:44:42.427Z,21.80
2019-03-31T10:47:15.541Z,21.90
2019-03-31T10:49:48.581Z,21.80
2019-03-31T10:52:21.562Z,21.80
2019-03-31T10:54:54.752Z,21.80
2019-03-31T10:57:27.796Z,21.80
2019-03-31T11:00:01.062Z,21.80
2019-03-31T11:02:34.352Z,21.80
2019-03-31T11:05:07.875Z,21.80
2019-03-31T11:07:41.165Z,21.80
2019-03-31T11:10:14.393Z,21.80
2019-03-31T11:12:50.680Z,21.70
2019-03-31T11:15:21.596Z,21.80
2019-03-31T11:17:54.562Z,21.70
2019-03-31T11:20:27.686Z,21.70
2019-03-31T11:23:20.020Z,21.70
2019-03-31T11:25:53.114Z,21.70
2019-03-31T11:28:26.099Z,21.70
2019-03-31T11:30:59.770Z,21.70
2019-03-31T11:33:32.538Z,21.70
2019-03-31T11:36:06.382Z,21.70
2019-03-31T11:38:40.280Z,21.70
2019-03-31T11:41:14.474Z,21.70
2019-03-31T11:43:47.538Z,21.60
2019-03-31T11:46:20.631Z,21.60
2019-03-31T11:48:53.872Z,21.60
2019-03-31T11:51:26.999Z,21.60
2019-03-31T11:54:00.056Z,21.60
2019-03-31T11:56:33.051Z,21.60
2019-03-31T11:59:06.233Z,21.60
2019-03-31T12:01:39.290Z,21.60
2019-03-31T12:04:12.101Z,21.50
2019-03-31T12:06:45.868Z,21.50
2019-03-31T12:09:18.679Z,21.50
2019-03-31T12:11:51.971Z,21.50
2019-03-31T12:14:24.924Z,21.50
2019-03-31T12:16:58.027Z,21.50
2019-03-31T12:19:30.972Z,21.50
2019-03-31T12:22:04.366Z,21.50
2019-03-31T12:24:37.345Z,21.50
2019-03-31T12:27:10.614Z,21.50
2019-03-31T12:29:43.588Z,21.50
2019-03-31T12:32:16.685Z,21.50
2019-03-31T12:34:49.699Z,21.50
2019-03-31T12:37:23.040Z,21.50
2019-03-31T12:39:55.872Z,21.50
2019-03-31T12:42:29.244Z,21.50
2019-03-31T12:45:02.118Z,21.50
2019-03-31T12:47:35.987Z,21.50
2019-03-31T12:50:09.701Z,21.50
2019-03-31T12:52:47.490Z,21.50
2019-03-31T12:55:17.540Z,21.50
2019-03-31T12:57:51.984Z,21.50
2019-03-31T13:00:24.781Z,21.50
2019-03-31T13:02:57.514Z,21.50
2019-03-31T13:05:30.239Z,21.50
2019-03-31T13:08:04.440Z,21.50
2019-03-31T13:10:37.343Z,21.60
2019-03-31T13:13:10.433Z,21.60
2019-03-31T13:15:43.495Z,21.60
2019-03-31T13:18:16.618Z,21.60
2019-03-31T13:20:49.712Z,21.60
2019-03-31T13:23:23.023Z,21.60
2019-03-31T13:25:55.857Z,21.70
2019-03-31T13:28:28.966Z,21.70
2019-03-31T13:31:02.371Z,21.70
2019-03-31T13:33:36.026Z,21.70
2019-03-31T13:36:08.936Z,21.70
2019-03-31T13:38:41.996Z,21.70
2019-03-31T13:41:15.014Z,21.70
2019-03-31T13:43:48.953Z,21.70
2019-03-31T13:46:22.064Z,21.60
2019-03-31T13:48:54.969Z,21.60
2019-03-31T13:51:28.073Z,21.60
2019-03-31T13:54:00.887Z,21.60
2019-03-31T13:56:34.859Z,21.60
2019-03-31T13:59:09.184Z,21.60
2019-03-31T14:01:42.302Z,21.60
2019-03-31T14:04:15.497Z,21.50
2019-03-31T14:06:48.630Z,21.60
2019-03-31T14:09:21.680Z,21.60
2019-03-31T14:11:54.963Z,21.60
2019-03-31T14:14:27.899Z,21.60
2019-03-31T14:17:01.041Z,21.60
2019-03-31T14:19:33.952Z,21.60
2019-03-31T14:22:06.986Z,21.70
2019-03-31T14:24:40.393Z,21.70
2019-03-31T14:27:13.402Z,21.70
2019-03-31T14:29:46.564Z,21.70
2019-03-31T14:32:19.354Z,21.70
2019-03-31T14:34:52.355Z,21.70
2019-03-31T14:37:25.336Z,21.70
2019-03-31T14:39:58.746Z,21.70
2019-03-31T14:42:31.712Z,21.70
2019-03-31T14:45:05.093Z,21.60
2019-03-31T14:47:38.018Z,21.60
2019-03-31T14:50:13.635Z,21.70
2019-03-31T14:52:46.603Z,21.60
2019-03-31T14:55:19.590Z,21.70
2019-03-31T14:57:52.730Z,21.70
2019-03-31T15:00:25.873Z,21.70
2019-03-31T15:02:58.800Z,21.70
2019-03-31T15:05:31.560Z,21.70
2019-03-31T15:08:05.494Z,21.70
2019-03-31T15:10:38.829Z,21.70
2019-03-31T15:13:12.060Z,21.70
2019-03-31T15:15:45.039Z,21.70
2019-03-31T15:18:17.899Z,21.70
2019-03-31T15:20:51.124Z,21.70
2019-03-31T15:23:28.890Z,21.70
2019-03-31T15:25:58.243Z,21.70
2019-03-31T15:28:31.228Z,21.70
2019-03-31T15:31:05.230Z,21.70
2019-03-31T15:33:38.192Z,21.70
2019-03-31T15:36:11.336Z,21.70
2019-03-31T15:38:44.202Z,21.70
2019-03-31T15:41:21.329Z,21.70
2019-03-31T15:43:51.385Z,21.70
2019-03-31T15:46:24.948Z,21.70
2019-03-31T15:48:57.834Z,21.70
2019-03-31T15:51:31.571Z,21.70
2019-03-31T15:54:04.548Z,21.70
2019-03-31T15:56:38.651Z,21.70
2019-03-31T15:59:11.655Z,21.70
2019-03-31T16:01:44.741Z,21.70
2019-03-31T16:04:17.731Z,21.70
2019-03-31T16:06:50.924Z,21.70
2019-03-31T16:09:24.265Z,21.70
2019-03-31T16:11:57.485Z,21.70
2019-03-31T16:14:30.496Z,21.70
2019-03-31T16:17:03.285Z,21.70
2019-03-31T16:19:37.483Z,21.70
2019-03-31T16:22:10.041Z,21.60
2019-03-31T16:24:44.206Z,21.60
2019-03-31T16:27:17.398Z,21.60
2019-03-31T16:29:50.564Z,21.60
2019-03-31T16:32:23.457Z,21.60
2019-03-31T16:34:56.530Z,21.60
2019-03-31T16:37:29.634Z,21.60
2019-03-31T16:40:02.775Z,21.60
2019-03-31T16:42:36.042Z,21.60
2019-03-31T16:45:10.475Z,21.60
2019-03-31T16:47:43.436Z,21.60
2019-03-31T16:50:16.604Z,21.60
2019-03-31T16:52:52.379Z,21.60
2019-03-31T16:55:23.708Z,21.50
2019-03-31T16:57:56.600Z,21.50
2019-03-31T17:00:29.979Z,21.50
2019-03-31T17:03:02.792Z,21.50
2019-03-31T17:05:35.973Z,21.50
2019-03-31T17:08:08.959Z,21.50
2019-03-31T17:10:42.142Z,21.60
2019-03-31T17:13:15.112Z,21.60
2019-03-31T17:15:48.190Z,21.60
2019-03-31T17:18:21.609Z,21.60
2019-03-31T17:20:54.751Z,21.60
2019-03-31T17:23:27.691Z,21.60
2019-03-31T17:26:00.691Z,21.50
2019-03-31T17:28:33.866Z,21.50
2019-03-31T17:31:06.842Z,21.50
2019-03-31T17:33:39.871Z,21.40
2019-03-31T17:36:13.026Z,21.40
2019-03-31T17:38:46.273Z,21.40
2019-03-31T17:41:19.426Z,21.30
2019-03-31T17:43:52.627Z,21.20
2019-03-31T17:46:25.733Z,21.20
2019-03-31T17:48:59.240Z,21.10
2019-03-31T17:51:32.202Z,21.10
2019-03-31T17:54:06.432Z,21.10
2019-03-31T17:56:39.924Z,21.10
2019-03-31T17:59:13.063Z,21.00
2019-03-31T18:01:46.195Z,21.00
2019-03-31T18:04:19.683Z,21.00
2019-03-31T18:06:52.673Z,21.00
2019-03-31T18:09:25.838Z,20.90
2019-03-31T18:11:58.737Z,20.90
2019-03-31T18:14:32.243Z,20.90
2019-03-31T18:17:05.337Z,20.90
2019-03-31T18:19:38.604Z,20.90
2019-03-31T18:22:16.797Z,20.90
2019-03-31T18:24:45.727Z,20.90
2019-03-31T18:27:18.943Z,20.90
2019-03-31T18:29:52.149Z,20.90
2019-03-31T18:32:25.102Z,20.90
2019-03-31T18:34:58.310Z,20.90
2019-03-31T18:37:31.350Z,20.90
2019-03-31T18:40:04.437Z,20.90
2019-03-31T18:42:37.438Z,20.90
2019-03-31T18:45:11.108Z,20.90
2019-03-31T18:47:44.224Z,20.90
2019-03-31T18:50:17.515Z,20.80
2019-03-31T18:52:50.419Z,20.70
2019-03-31T18:55:41.368Z,20.70
2019-03-31T18:58:21.387Z,20.70
2019-03-31T19:01:05.044Z,20.70
2019-03-31T19:03:55.017Z,20.60
2019-03-31T19:06:29.425Z,20.50
2019-03-31T19:09:12.690Z,20.50
2019-03-31T19:11:59.435Z,20.50
2019-03-31T19:14:33.596Z,20.50
2019-03-31T19:17:13.770Z,20.50
2019-03-31T19:19:47.658Z,20.50
2019-03-31T19:22:23.558Z,20.50
2019-03-31T19:25:00.473Z,20.50
2019-03-31T19:27:43.938Z,20.50
2019-03-31T19:30:33.408Z,20.50
2019-03-31T19:33:24.085Z,20.60
2019-03-31T19:35:58.137Z,20.60
2019-03-31T19:38:38.166Z,20.70
2019-03-31T19:41:21.791Z,20.70
2019-03-31T19:43:55.982Z,20.70
2019-03-31T19:46:33.414Z,20.70
2019-03-31T19:49:14.703Z,20.80
2019-03-31T19:52:06.560Z,20.80
2019-03-31T19:54:41.147Z,20.80
2019-03-31T19:57:24.291Z,20.90
2019-03-31T20:00:13.945Z,20.90
2019-03-31T20:02:48.099Z,20.80
2019-03-31T20:05:38.767Z,20.80
2019-03-31T20:08:12.854Z,20.90
2019-03-31T20:10:47.199Z,20.80
2019-03-31T20:13:27.223Z,20.80
2019-03-31T20:16:07.784Z,20.70
2019-03-31T20:18:51.502Z,20.70
2019-03-31T20:21:32.221Z,20.70
2019-03-31T20:24:22.617Z,20.70
2019-03-31T20:26:56.625Z,20.70
2019-03-31T20:29:36.651Z,20.70
2019-03-31T20:32:11.123Z,20.70
2019-03-31T20:34:45.609Z,20.80
2019-03-31T20:37:28.817Z,20.80
2019-03-31T20:40:15.123Z,20.90
2019-03-31T20:42:55.303Z,20.90
2019-03-31T20:45:28.268Z,20.90
2019-03-31T20:48:01.369Z,20.90
2019-03-31T20:50:35.104Z,21.00
2019-03-31T20:53:10.155Z,21.00
2019-03-31T20:55:43.070Z,21.00
2019-03-31T20:58:16.844Z,21.00
2019-03-31T21:00:49.523Z,21.10
2019-03-31T21:03:22.754Z,21.10
2019-03-31T21:05:55.959Z,21.10
2019-03-31T21:08:28.981Z,21.10
2019-03-31T21:11:01.830Z,21.10
2019-03-31T21:13:35.724Z,21.10
2019-03-31T21:16:08.562Z,21.10
2019-03-31T21:18:41.274Z,21.10
2019-03-31T21:21:14.275Z,21.20
2019-03-31T21:23:47.144Z,21.20
2019-03-31T21:26:20.194Z,21.20
2019-03-31T21:28:53.291Z,21.20
2019-03-31T21:31:26.094Z,21.20
2019-03-31T21:33:59.171Z,21.20
2019-03-31T21:36:32.580Z,21.20
2019-03-31T21:39:06.915Z,21.10
2019-03-31T21:41:39.898Z,21.10
2019-03-31T21:44:13.213Z,21.00
2019-03-31T21:46:46.065Z,21.00
2019-03-31T21:49:19.199Z,21.00
2019-03-31T21:51:52.840Z,20.90
2019-03-31T21:54:25.935Z,20.90
2019-03-31T21:56:58.849Z,20.90
2019-03-31T21:59:33.664Z,20.90
2019-03-31T22:02:06.652Z,20.90
2019-03-31T22:04:40.985Z,20.90
2019-03-31T22:07:13.725Z,20.90
2019-03-31T22:09:46.854Z,21.00
2019-03-31T22:12:19.693Z,21.00
2019-03-31T22:14:53.643Z,21.00
2019-03-31T22:17:26.618Z,21.10
2019-03-31T22:19:59.600Z,21.10
2019-03-31T22:22:32.735Z,21.20
2019-03-31T22:25:05.629Z,21.20
2019-03-31T22:27:38.764Z,21.20
2019-03-31T22:30:11.665Z,21.20
2019-03-31T22:32:44.910Z,21.20
2019-03-31T22:35:17.730Z,21.30
2019-03-31T22:37:50.710Z,21.30
2019-03-31T22:40:23.577Z,21.30
2019-03-31T22:42:56.475Z,21.30
2019-03-31T22:45:29.972Z,21.30
2019-03-31T22:48:02.861Z,21.30
2019-03-31T22:50:36.111Z,21.30
2019-03-31T22:53:09.189Z,21.30
2019-03-31T22:55:42.306Z,21.30
2019-03-31T22:58:15.243Z,21.30
2019-03-31T23:00:48.403Z,21.30
2019-03-31T23:03:21.203Z,21.20
2019-03-31T23:05:57.188Z,21.20
2019-03-31T23:08:30.352Z,21.20
2019-03-31T23:11:03.243Z,21.20
2019-03-31T23:13:37.163Z,21.20
2019-03-31T23:16:10.025Z,21.20
2019-03-31T23:18:43.300Z,21.20
2019-03-31T23:21:19.282Z,21.20
2019-03-31T23:23:52.404Z,21.20
2019-03-31T23:26:25.361Z,21.20
2019-03-31T23:28:58.235Z,21.10
2019-03-31T23:31:31.039Z,21.10
2019-03-31T23:34:04.279Z,21.10
2019-03-31T23:36:37.478Z,21.10
2019-03-31T23:39:10.841Z,21.00
2019-03-31T23:41:43.863Z,21.10
2019-03-31T23:44:16.909Z,21.10
2019-03-31T23:46:49.882Z,21.10
2019-03-31T23:49:22.836Z,21.10
2019-03-31T23:51:55.998Z,21.20
2019-03-31T23:54:29.144Z,21.20
2019-03-31T23:57:03.294Z,21.20
2019-03-31T23:59:36.139Z,21.30
